createdAt,value
2023-03-07T00:00:45.003Z,87.12
2023-03-07T00:03:12.965Z,88.60
2023-03-07T00:05:43.112Z,88.40
2023-03-07T00:08:10.535Z,88.90
2023-03-07T00:10:37.032Z,88.28
2023-03-07T00:13:04.106Z,87.99
2023-03-07T00:15:30.829Z,89.00
2023-03-07T00:17:58.233Z,88.48
2023-03-07T00:20:24.721Z,89.61
2023-03-07T00:22:51.123Z,86.97
2023-03-07T00:25:17.805Z,90.13
2023-03-07T00:27:44.202Z,90.24
2023-03-07T00:30:12.436Z,88.88
2023-03-07T00:32:39.102Z,89.29
2023-03-07T00:35:06.013Z,89.85
2023-03-07T00:37:32.430Z,89.05
2023-03-07T00:39:58.837Z,89.52
2023-03-07T00:42:25.206Z,87.78
2023-03-07T00:44:51.584Z,89.09
2023-03-07T00:47:17.952Z,88.78
2023-03-07T00:49:44.322Z,88.77
2023-03-07T00:52:10.691Z,89.68
2023-03-07T00:54:41.339Z,89.42
2023-03-07T00:57:07.712Z,90.87
2023-03-07T00:59:34.114Z,89.93
2023-03-07T01:02:00.532Z,90.51
2023-03-07T01:04:26.991Z,92.13
2023-03-07T01:06:53.423Z,91.89
2023-03-07T01:09:19.823Z,91.36
2023-03-07T01:11:49.643Z,90.45
2023-03-07T01:14:16.054Z,90.65
2023-03-07T01:16:42.441Z,89.40
2023-03-07T01:19:12.486Z,89.17
2023-03-07T01:21:40.857Z,88.24
2023-03-07T01:24:08.627Z,89.04
2023-03-07T01:26:35.389Z,89.58
2023-03-07T01:29:04.924Z,90.44
2023-03-07T01:31:32.491Z,90.96
2023-03-07T01:33:59.826Z,91.35
2023-03-07T01:36:30.235Z,90.37
2023-03-07T01:39:00.937Z,90.36
2023-03-07T01:41:31.948Z,90.14
2023-03-07T01:43:59.592Z,91.61
2023-03-07T01:46:31.976Z,91.98
2023-03-07T01:49:05.016Z,92.31
2023-03-07T01:51:32.726Z,93.82
2023-03-07T01:54:01.591Z,94.20
2023-03-07T01:56:28.253Z,92.36
2023-03-07T01:58:55.603Z,92.88
2023-03-07T02:01:23.437Z,93.72
2023-03-07T02:04:18.340Z,93.29
2023-03-07T02:06:44.780Z,94.08
2023-03-07T02:09:16.991Z,94.54
2023-03-07T02:11:44.996Z,94.19
2023-03-07T02:14:11.821Z,95.42
2023-03-07T02:16:39.712Z,96.50
2023-03-07T02:19:22.052Z,95.55
2023-03-07T02:22:11.107Z,93.89
2023-03-07T02:24:51.836Z,95.60
2023-03-07T02:27:18.409Z,96.36
2023-03-07T02:29:49.868Z,95.78
2023-03-07T02:32:16.308Z,95.29
2023-03-07T02:34:42.866Z,95.61
2023-03-07T02:37:34.644Z,96.28
2023-03-07T02:40:06.552Z,94.81
2023-03-07T02:42:35.717Z,97.01
2023-03-07T02:45:05.672Z,97.17
2023-03-07T02:47:32.136Z,97.64
2023-03-07T02:49:58.529Z,96.29
2023-03-07T02:52:27.828Z,97.63
2023-03-07T02:54:55.038Z,98.16
2023-03-07T02:57:25.538Z,97.85
2023-03-07T02:59:51.984Z,99.53
2023-03-07T03:02:18.544Z,98.89
2023-03-07T03:04:45.129Z,98.51
2023-03-07T03:07:11.738Z,98.94
2023-03-07T03:09:38.148Z,99.26
2023-03-07T03:12:04.747Z,98.18
2023-03-07T03:14:32.418Z,98.37
2023-03-07T03:16:58.846Z,98.71
2023-03-07T03:19:25.295Z,97.77
2023-03-07T03:21:51.836Z,98.36
2023-03-07T03:24:18.224Z,98.43
2023-03-07T03:26:44.711Z,99.19
2023-03-07T03:29:11.514Z,98.56
2023-03-07T03:31:38.068Z,99.31
2023-03-07T03:34:05.608Z,99.50
2023-03-07T03:36:32.589Z,100.00
2023-03-07T03:39:00.864Z,99.88
2023-03-07T03:41:27.442Z,99.86
2023-03-07T03:43:53.919Z,99.11
2023-03-07T03:46:20.489Z,99.11
2023-03-07T03:48:56.272Z,99.96
2023-03-07T03:51:24.304Z,98.70
2023-03-07T03:53:51.455Z,100.00
2023-03-07T03:56:20.702Z,100.00
2023-03-07T03:58:48.363Z,99.19
2023-03-07T04:01:14.820Z,98.97
2023-03-07T04:03:44.546Z,98.62
2023-03-07T04:06:13.685Z,98.60
2023-03-07T04:08:41.156Z,95.49
2023-03-07T04:11:07.627Z,96.73
2023-03-07T04:13:35.528Z,97.05
2023-03-07T04:16:02.995Z,94.64
2023-03-07T04:18:29.553Z,96.36
2023-03-07T04:20:56.275Z,97.71
2023-03-07T04:23:24.035Z,99.12
2023-03-07T04:25:52.576Z,98.20
2023-03-07T04:28:19.664Z,98.12
2023-03-07T04:30:47.051Z,96.92
2023-03-07T04:33:13.550Z,98.86
2023-03-07T04:35:39.988Z,98.43
2023-03-07T04:38:07.130Z,98.21
2023-03-07T04:40:35.040Z,98.87
2023-03-07T04:43:03.372Z,98.72
2023-03-07T04:45:32.769Z,98.90
2023-03-07T04:47:59.259Z,99.47
2023-03-07T04:50:25.651Z,100.00
2023-03-07T04:52:52.148Z,98.05
2023-03-07T04:55:18.572Z,98.54
2023-03-07T04:57:45.004Z,99.81
2023-03-07T05:00:11.985Z,98.69
2023-03-07T05:02:38.778Z,98.92
2023-03-07T05:05:06.292Z,99.25
2023-03-07T05:07:32.970Z,99.93
2023-03-07T05:09:59.380Z,100.00
2023-03-07T05:12:25.807Z,100.00
2023-03-07T05:15:01.683Z,99.66
2023-03-07T05:17:30.656Z,98.09
2023-03-07T05:19:57.201Z,98.84
2023-03-07T05:22:24.264Z,98.43
2023-03-07T05:24:50.804Z,98.11
2023-03-07T05:27:23.569Z,98.93
2023-03-07T05:29:51.992Z,99.42
2023-03-07T05:32:18.447Z,99.27
2023-03-07T05:34:46.983Z,99.18
2023-03-07T05:37:13.841Z,98.61
2023-03-07T05:39:40.390Z,98.82
2023-03-07T05:42:06.896Z,98.24
2023-03-07T05:44:34.260Z,98.08
2023-03-07T05:47:00.766Z,97.58
2023-03-07T05:49:27.185Z,97.56
2023-03-07T05:51:53.598Z,97.98
2023-03-07T05:54:20.090Z,98.56
2023-03-07T05:56:46.491Z,97.31
2023-03-07T05:59:15.508Z,98.44
2023-03-07T06:01:42.643Z,98.44
2023-03-07T06:04:15.093Z,97.90
2023-03-07T06:06:41.538Z,97.94
2023-03-07T06:09:08.052Z,97.12
2023-03-07T06:11:34.624Z,97.43
2023-03-07T06:14:01.116Z,96.56
2023-03-07T06:16:27.612Z,96.41
2023-03-07T06:18:54.084Z,95.90
2023-03-07T06:21:20.488Z,94.53
2023-03-07T06:23:47.060Z,95.48
2023-03-07T06:26:13.521Z,95.54
2023-03-07T06:28:40.339Z,95.43
2023-03-07T06:31:14.989Z,95.53
2023-03-07T06:33:47.735Z,95.20
2023-03-07T06:36:17.053Z,94.59
2023-03-07T06:38:43.811Z,94.82
2023-03-07T06:41:10.496Z,94.54
2023-03-07T06:43:37.068Z,94.82
2023-03-07T06:46:03.638Z,95.81
2023-03-07T06:48:30.244Z,93.36
2023-03-07T06:50:56.808Z,93.27
2023-03-07T06:53:23.290Z,94.17
2023-03-07T06:55:51.197Z,94.03
2023-03-07T06:58:18.426Z,94.79
2023-03-07T07:00:45.994Z,96.12
2023-03-07T07:03:14.050Z,95.96
2023-03-07T07:05:40.826Z,96.56
2023-03-07T07:08:07.627Z,95.74
2023-03-07T07:10:34.065Z,95.34
2023-03-07T07:13:00.631Z,95.08
2023-03-07T07:15:27.202Z,93.67
2023-03-07T07:17:53.893Z,93.40
2023-03-07T07:20:21.941Z,92.09
2023-03-07T07:22:48.523Z,92.70
2023-03-07T07:25:15.058Z,92.12
2023-03-07T07:27:41.462Z,92.33
2023-03-07T07:30:09.005Z,93.17
2023-03-07T07:32:35.648Z,92.98
2023-03-07T07:35:03.543Z,92.42
2023-03-07T07:37:29.950Z,91.21
2023-03-07T07:39:56.362Z,91.85
2023-03-07T07:42:22.817Z,90.42
2023-03-07T07:44:49.557Z,91.34
2023-03-07T07:47:16.025Z,91.88
2023-03-07T07:49:48.009Z,90.50
2023-03-07T07:52:14.474Z,89.58
2023-03-07T07:54:40.892Z,90.62
2023-03-07T07:57:07.370Z,91.07
2023-03-07T07:59:34.264Z,90.10
2023-03-07T08:02:01.959Z,89.96
2023-03-07T08:04:29.052Z,89.97
2023-03-07T08:06:55.471Z,89.22
2023-03-07T08:09:21.876Z,89.45
2023-03-07T08:11:48.516Z,89.36
2023-03-07T08:14:15.250Z,89.04
2023-03-07T08:16:42.020Z,88.04
2023-03-07T08:19:12.563Z,86.25
2023-03-07T08:21:58.949Z,85.00
2023-03-07T08:24:40.004Z,84.36
2023-03-07T08:27:07.192Z,86.79
2023-03-07T08:29:35.173Z,87.01
2023-03-07T08:32:01.861Z,85.70
2023-03-07T08:34:28.376Z,84.85
2023-03-07T08:36:54.799Z,86.42
2023-03-07T08:39:21.214Z,84.38
2023-03-07T08:41:47.627Z,88.27
2023-03-07T08:44:14.019Z,85.72
2023-03-07T08:46:40.598Z,82.28
2023-03-07T08:49:07.117Z,82.85
2023-03-07T08:51:34.957Z,83.63
2023-03-07T08:54:01.401Z,85.01
2023-03-07T08:56:27.881Z,84.64
2023-03-07T08:58:54.812Z,83.68
2023-03-07T09:01:21.411Z,85.25
2023-03-07T09:03:50.991Z,84.91
2023-03-07T09:06:19.406Z,84.33
2023-03-07T09:08:47.207Z,84.69
2023-03-07T09:11:14.376Z,83.66
2023-03-07T09:13:51.453Z,82.78
2023-03-07T09:16:19.388Z,82.31
2023-03-07T09:18:45.878Z,83.72
2023-03-07T09:21:21.817Z,84.36
2023-03-07T09:23:48.360Z,84.14
2023-03-07T09:26:15.730Z,82.37
2023-03-07T09:29:01.432Z,82.16
2023-03-07T09:31:27.939Z,83.65
2023-03-07T09:33:54.371Z,82.05
2023-03-07T09:36:20.831Z,82.92
2023-03-07T09:38:52.414Z,82.94
2023-03-07T09:41:31.475Z,83.12
2023-03-07T09:44:19.512Z,83.00
2023-03-07T09:47:04.282Z,82.45
2023-03-07T09:49:46.252Z,82.02
2023-03-07T09:52:27.862Z,80.25
2023-03-07T09:55:03.276Z,78.77
2023-03-07T09:57:55.239Z,77.93
2023-03-07T10:00:40.297Z,79.66
2023-03-07T10:03:19.570Z,81.54
2023-03-07T10:05:51.652Z,82.79
2023-03-07T10:08:24.782Z,82.88
2023-03-07T10:11:08.488Z,82.18
2023-03-07T10:13:50.197Z,82.75
2023-03-07T10:16:24.042Z,83.50
2023-03-07T10:19:15.917Z,78.65
2023-03-07T10:22:18.913Z,78.73
2023-03-07T10:25:10.260Z,75.59
2023-03-07T10:27:38.317Z,76.79
2023-03-07T10:30:17.871Z,77.04
2023-03-07T10:32:52.577Z,79.84
2023-03-07T10:35:22.342Z,79.20
2023-03-07T10:37:58.578Z,79.84
2023-03-07T10:40:33.605Z,75.56
2023-03-07T10:43:00.870Z,75.93
2023-03-07T10:45:32.703Z,77.18
2023-03-07T10:48:05.513Z,78.21
2023-03-07T10:50:31.999Z,78.72
2023-03-07T10:53:00.188Z,77.47
2023-03-07T10:55:32.909Z,77.99
2023-03-07T10:58:29.104Z,78.85
2023-03-07T11:01:06.678Z,78.18
2023-03-07T11:03:58.634Z,77.22
2023-03-07T11:06:31.339Z,78.02
2023-03-07T11:09:08.996Z,78.04
2023-03-07T11:11:36.798Z,78.00
2023-03-07T11:14:14.729Z,77.80
2023-03-07T11:17:02.524Z,77.13
2023-03-07T11:19:42.771Z,80.22
2023-03-07T11:22:33.757Z,77.04
2023-03-07T11:25:25.791Z,76.58
2023-03-07T11:27:56.645Z,78.59
2023-03-07T11:30:50.157Z,75.97
2023-03-07T11:33:58.643Z,76.26
2023-03-07T11:36:33.315Z,75.41
2023-03-07T11:39:03.041Z,75.07
2023-03-07T11:41:37.854Z,76.00
2023-03-07T11:44:25.826Z,77.83
2023-03-07T11:47:01.580Z,78.06
2023-03-07T11:49:49.240Z,78.44
2023-03-07T11:52:43.116Z,75.44
2023-03-07T11:55:49.843Z,76.21
2023-03-07T11:58:34.579Z,76.09
2023-03-07T12:01:13.118Z,75.44
2023-03-07T12:03:42.407Z,75.12
2023-03-07T12:06:33.179Z,74.34
2023-03-07T12:08:59.633Z,76.63
2023-03-07T12:12:10.023Z,73.09
2023-03-07T12:15:06.256Z,74.69
2023-03-07T12:17:50.353Z,72.89
2023-03-07T12:20:27.743Z,70.09
2023-03-07T12:23:15.543Z,69.94
2023-03-07T12:25:46.089Z,70.58
2023-03-07T12:28:19.874Z,68.64
2023-03-07T12:31:15.094Z,70.30
2023-03-07T12:33:59.957Z,70.98
2023-03-07T12:36:58.801Z,71.71
2023-03-07T12:39:48.195Z,71.77
2023-03-07T12:42:15.110Z,72.23
2023-03-07T12:44:58.110Z,70.36
2023-03-07T12:47:33.384Z,70.57
2023-03-07T12:50:18.767Z,70.52
2023-03-07T12:53:04.291Z,72.29
2023-03-07T12:55:41.714Z,68.21
2023-03-07T12:58:29.550Z,69.68
2023-03-07T13:01:14.429Z,71.39
2023-03-07T13:03:51.263Z,69.30
2023-03-07T13:06:20.580Z,69.36
2023-03-07T13:08:50.711Z,68.47
2023-03-07T13:11:19.615Z,70.79
2023-03-07T13:13:46.009Z,69.88
2023-03-07T13:16:31.590Z,68.11
2023-03-07T13:19:37.084Z,67.49
2023-03-07T13:22:23.744Z,65.51
2023-03-07T13:24:52.076Z,67.33
2023-03-07T13:27:24.229Z,68.94
2023-03-07T13:30:12.743Z,65.94
2023-03-07T13:32:48.400Z,61.36
2023-03-07T13:35:39.089Z,59.50
2023-03-07T13:38:23.860Z,60.69
2023-03-07T13:40:55.866Z,62.63
2023-03-07T13:43:32.251Z,59.90
2023-03-07T13:45:59.569Z,59.38
2023-03-07T13:48:29.137Z,60.21
2023-03-07T13:50:55.909Z,59.43
2023-03-07T13:53:30.878Z,60.99
2023-03-07T13:56:01.179Z,57.23
2023-03-07T13:59:06.273Z,61.45
2023-03-07T14:01:46.563Z,61.01
2023-03-07T14:04:33.200Z,61.04
2023-03-07T14:07:28.829Z,60.76
2023-03-07T14:10:21.445Z,56.91
2023-03-07T14:13:05.164Z,56.81
2023-03-07T14:15:57.050Z,53.20
2023-03-07T14:19:11.054Z,51.12
2023-03-07T14:21:51.977Z,49.68
2023-03-07T14:24:40.963Z,51.88
2023-03-07T14:27:13.564Z,50.96
2023-03-07T14:29:56.943Z,50.90
2023-03-07T14:32:32.124Z,51.95
2023-03-07T14:35:15.540Z,52.44
2023-03-07T14:37:49.406Z,53.02
2023-03-07T14:40:57.216Z,51.81
2023-03-07T14:43:40.664Z,51.55
2023-03-07T14:46:16.296Z,50.50
2023-03-07T14:48:59.167Z,53.71
2023-03-07T14:51:29.368Z,51.50
2023-03-07T14:54:12.715Z,52.73
2023-03-07T14:56:42.054Z,50.53
2023-03-07T14:59:25.897Z,51.55
2023-03-07T15:01:54.538Z,52.34
2023-03-07T15:04:28.702Z,51.94
2023-03-07T15:07:05.098Z,52.31
2023-03-07T15:09:33.670Z,52.28
2023-03-07T15:12:31.801Z,50.72
2023-03-07T15:15:02.386Z,51.00
2023-03-07T15:17:38.121Z,51.04
2023-03-07T15:20:22.482Z,52.49
2023-03-07T15:22:49.151Z,50.07
2023-03-07T15:25:23.966Z,50.47
2023-03-07T15:28:05.884Z,51.60
2023-03-07T15:30:34.557Z,51.09
2023-03-07T15:33:30.788Z,53.11
2023-03-07T15:36:13.641Z,53.07
2023-03-07T15:38:42.352Z,52.36
2023-03-07T15:41:25.265Z,51.61
2023-03-07T15:44:12.548Z,52.41
2023-03-07T15:46:44.255Z,53.17
2023-03-07T15:49:20.478Z,53.45
2023-03-07T15:51:49.899Z,54.38
2023-03-07T15:54:35.075Z,53.79
2023-03-07T15:57:05.321Z,52.59
2023-03-07T15:59:38.486Z,53.75
2023-03-07T16:02:32.954Z,55.72
2023-03-07T16:05:28.207Z,55.46
2023-03-07T16:08:00.056Z,56.45
2023-03-07T16:10:50.479Z,57.63
2023-03-07T16:13:33.146Z,55.90
2023-03-07T16:16:07.145Z,55.45
2023-03-07T16:18:39.292Z,55.93
2023-03-07T16:21:06.209Z,56.56
2023-03-07T16:23:33.838Z,56.10
2023-03-07T16:26:03.672Z,56.00
2023-03-07T16:28:30.087Z,55.21
2023-03-07T16:30:59.712Z,55.16
2023-03-07T16:33:26.150Z,55.46
2023-03-07T16:35:52.679Z,55.60
2023-03-07T16:38:19.204Z,56.09
2023-03-07T16:40:45.597Z,56.05
2023-03-07T16:43:29.459Z,55.69
2023-03-07T16:45:56.317Z,56.98
2023-03-07T16:48:22.997Z,57.49
2023-03-07T16:50:49.428Z,57.58
2023-03-07T16:53:16.423Z,59.22
2023-03-07T16:55:43.525Z,60.00
2023-03-07T16:58:20.586Z,61.17
2023-03-07T17:00:47.085Z,63.21
2023-03-07T17:03:13.538Z,64.10
2023-03-07T17:05:43.134Z,64.55
2023-03-07T17:08:09.601Z,63.35
2023-03-07T17:10:37.591Z,63.84
2023-03-07T17:13:17.472Z,65.15
2023-03-07T17:15:45.432Z,64.44
2023-03-07T17:18:13.614Z,65.28
2023-03-07T17:20:40.810Z,65.53
2023-03-07T17:23:07.407Z,65.42
2023-03-07T17:25:37.976Z,65.67
2023-03-07T17:28:07.518Z,64.63
2023-03-07T17:30:38.039Z,64.24
2023-03-07T17:33:05.465Z,64.12
2023-03-07T17:35:31.873Z,64.51
2023-03-07T17:37:58.325Z,64.80
2023-03-07T17:40:24.806Z,65.72
2023-03-07T17:42:51.765Z,65.60
2023-03-07T17:45:18.555Z,65.51
2023-03-07T17:47:44.982Z,64.69
2023-03-07T17:50:12.202Z,64.89
2023-03-07T17:52:41.759Z,64.21
2023-03-07T17:55:09.876Z,65.40
2023-03-07T17:57:36.697Z,65.61
2023-03-07T18:00:06.849Z,66.91
2023-03-07T18:02:33.345Z,66.98
2023-03-07T18:04:59.743Z,67.57
2023-03-07T18:07:26.311Z,67.19
2023-03-07T18:10:06.947Z,64.89
2023-03-07T18:12:34.843Z,65.25
2023-03-07T18:15:01.245Z,65.78
2023-03-07T18:17:33.313Z,65.46
2023-03-07T18:20:07.946Z,66.88
2023-03-07T18:22:38.268Z,66.49
2023-03-07T18:25:07.205Z,66.25
2023-03-07T18:27:33.607Z,66.67
2023-03-07T18:30:09.142Z,65.76
2023-03-07T18:32:35.645Z,66.35
2023-03-07T18:35:02.136Z,64.97
2023-03-07T18:37:30.542Z,65.83
2023-03-07T18:39:56.978Z,65.97
2023-03-07T18:42:23.351Z,65.56
2023-03-07T18:44:49.839Z,64.92
2023-03-07T18:47:16.297Z,65.27
2023-03-07T18:49:42.727Z,65.31
2023-03-07T18:52:09.121Z,65.11
2023-03-07T18:54:35.515Z,64.36
2023-03-07T18:57:20.282Z,65.33
2023-03-07T18:59:46.678Z,64.58
2023-03-07T19:02:13.129Z,64.90
2023-03-07T19:04:39.582Z,63.70
2023-03-07T19:07:06.137Z,64.33
2023-03-07T19:09:32.566Z,64.41
2023-03-07T19:11:58.977Z,63.91
2023-03-07T19:14:29.867Z,64.34
2023-03-07T19:16:56.250Z,64.33
2023-03-07T19:19:26.770Z,64.31
2023-03-07T19:21:53.202Z,64.45
2023-03-07T19:24:19.675Z,65.04
2023-03-07T19:26:46.415Z,64.64
2023-03-07T19:29:13.793Z,64.40
2023-03-07T19:31:43.622Z,65.36
2023-03-07T19:34:10.417Z,65.37
2023-03-07T19:36:41.685Z,66.21
2023-03-07T19:39:09.497Z,65.75
2023-03-07T19:41:37.682Z,66.17
2023-03-07T19:44:06.453Z,66.94
2023-03-07T19:46:32.887Z,66.78
2023-03-07T19:48:59.313Z,66.83
2023-03-07T19:51:26.425Z,66.88
2023-03-07T19:53:55.357Z,66.15
2023-03-07T19:56:27.384Z,66.47
2023-03-07T19:58:54.874Z,67.07
2023-03-07T20:01:22.861Z,66.59
2023-03-07T20:03:50.783Z,66.00
2023-03-07T20:06:20.109Z,66.43
2023-03-07T20:08:51.258Z,65.84
2023-03-07T20:11:25.018Z,65.46
2023-03-07T20:13:54.297Z,65.34
2023-03-07T20:16:20.980Z,65.39
2023-03-07T20:18:52.858Z,65.81
2023-03-07T20:21:21.470Z,65.40
2023-03-07T20:23:48.771Z,65.39
2023-03-07T20:26:29.848Z,65.58
2023-03-07T20:28:57.517Z,65.68
2023-03-07T20:31:24.113Z,65.27
2023-03-07T20:33:50.926Z,66.04
2023-03-07T20:36:32.725Z,67.14
2023-03-07T20:39:01.483Z,66.68
2023-03-07T20:41:30.798Z,66.33
2023-03-07T20:43:59.094Z,66.40
2023-03-07T20:46:25.967Z,67.67
2023-03-07T20:48:56.424Z,66.87
2023-03-07T20:51:26.886Z,67.91
2023-03-07T20:53:58.611Z,67.83
2023-03-07T20:56:27.194Z,66.75
2023-03-07T20:58:58.459Z,67.31
2023-03-07T21:01:27.367Z,65.31
2023-03-07T21:03:54.099Z,66.26
2023-03-07T21:06:21.388Z,66.90
2023-03-07T21:08:48.180Z,66.28
2023-03-07T21:11:24.760Z,65.64
2023-03-07T21:13:51.172Z,65.55
2023-03-07T21:16:23.120Z,67.20
2023-03-07T21:18:49.614Z,66.39
2023-03-07T21:21:25.406Z,66.61
2023-03-07T21:23:51.850Z,66.59
2023-03-07T21:26:23.408Z,67.15
2023-03-07T21:28:51.329Z,66.54
2023-03-07T21:31:19.678Z,66.29
2023-03-07T21:33:48.623Z,67.43
2023-03-07T21:36:16.737Z,67.38
2023-03-07T21:38:44.963Z,66.30
2023-03-07T21:41:12.371Z,67.63
2023-03-07T21:43:38.804Z,67.56
2023-03-07T21:46:07.114Z,67.70
2023-03-07T21:48:33.965Z,68.20
2023-03-07T21:51:01.038Z,68.55
2023-03-07T21:53:27.682Z,68.13
2023-03-07T21:55:55.105Z,68.26
2023-03-07T21:58:49.210Z,67.20
2023-03-07T22:01:21.908Z,67.33
2023-03-07T22:03:51.453Z,67.56
2023-03-07T22:06:17.874Z,67.17
2023-03-07T22:08:59.700Z,67.77
2023-03-07T22:11:26.114Z,67.52
2023-03-07T22:13:52.520Z,67.97
2023-03-07T22:16:23.150Z,68.09
2023-03-07T22:18:54.569Z,67.56
2023-03-07T22:21:21.450Z,67.80
2023-03-07T22:23:47.960Z,66.88
2023-03-07T22:26:14.382Z,67.20
2023-03-07T22:28:41.134Z,67.06
2023-03-07T22:31:10.854Z,68.33
2023-03-07T22:33:37.588Z,67.13
2023-03-07T22:36:40.149Z,66.74
2023-03-07T22:39:09.495Z,67.06
2023-03-07T22:41:36.085Z,66.98
2023-03-07T22:44:02.467Z,67.84
2023-03-07T22:46:28.959Z,67.54
2023-03-07T22:48:56.657Z,67.73
2023-03-07T22:51:24.727Z,68.46
2023-03-07T22:53:51.370Z,68.00
2023-03-07T22:56:19.472Z,68.22
2023-03-07T22:58:52.155Z,68.04
2023-03-07T23:01:21.995Z,66.69
2023-03-07T23:03:50.272Z,67.47
2023-03-07T23:06:17.559Z,68.32
2023-03-07T23:08:48.757Z,67.37
2023-03-07T23:11:16.816Z,68.03
2023-03-07T23:14:04.572Z,67.83
2023-03-07T23:16:32.314Z,67.64
2023-03-07T23:18:59.861Z,66.34
2023-03-07T23:21:29.790Z,68.09
2023-03-07T23:23:57.060Z,67.56
2023-03-07T23:26:29.395Z,66.91
2023-03-07T23:28:56.091Z,66.34
2023-03-07T23:31:27.562Z,66.69
2023-03-07T23:33:56.073Z,66.94
2023-03-07T23:36:23.361Z,66.27
2023-03-07T23:38:49.774Z,66.10
2023-03-07T23:41:16.423Z,65.58
2023-03-07T23:43:42.846Z,66.67
2023-03-07T23:46:09.293Z,65.81
2023-03-07T23:48:35.696Z,65.31
2023-03-07T23:51:02.314Z,65.75
2023-03-07T23:53:28.691Z,64.43
2023-03-07T23:55:55.082Z,64.37
2023-03-07T23:58:21.530Z,65.18
